Birmingham-Shuttlesworth International Airport
KBHM : now visible

Airfield :











YOU CAN JOIN US ON...

 
LOGIN :

Register | Disclaimer

   EN    FR    IT 

 









Legend :    VFR   Marginal VFR   IFR   Intensive IFR   Very Intensive IFR
Visi :
Ceiling :
>= 8 km
>= 3000ft
5 to 8 km
1000 to 3000 ft
1500m to 5 km
500 to 1000 ft
800 to 1500m
200 to 500 ft
< 800m
< 200 ft
Symbols :   Thunderstorms  Fog  Heavy snow  Heavy precipitations  Wind > 20 kt






- Airport Elevation : 650 ft
- IATA code : BHM


KBHM - Birmingham-Shuttlesworth International

CURRENT METAR :
  • 220653Z 17004KT 10SM SCT120 13/06 A3013 RMK AO2 SLP199 T01280061

EXPIRED METARs :
  • 220553Z 00000KT 10SM SCT120 13/06 A3013 RMK AO2 SLP201 T01280061 10172 20128 401780061 56012
  • 220453Z 00000KT 10SM SCT120 16/06 A3013 RMK AO2 SLP200 T01560061

TAF KBHM
Valid from the 22 at 06:00 until the 23 at 06:00 UTC


220521Z 2206/2306 15003KT P6SM SCT120 BKN250
FM221200 17005KT P6SM BKN025 OVC050
FM221700 21007KT P6SM VCSH BKN035
FM230100 18003KT 5SM -SHRA OVC015



MET'MAP, your aeronautical weather chart ! - Copyright ORBIFLY December 2007 - Disclaimer

ORBIFLY MET'MAP TEAM :

Programming & Development : Alexandra Zaïnal
Concept & Development : Baudouin d'Aumeries
Co-Development & Prog : Marc-Olivier Méhu
Technical & hardware support : Manuel Goepfert

Contact : metmap@orbifly.com




SOURCES & CREDITS :

   NOAA       Earth
Advisory